sensor_id;sensor_type;location;lat;lon;timestamp;temperature;humidity
2579;DHT22;1299;48.282;14.398;2023-03-01T00:02:22;2.90;99.90
2579;DHT22;1299;48.282;14.398;2023-03-01T00:04:49;2.90;99.90
2579;DHT22;1299;48.282;14.398;2023-03-01T00:07:17;2.90;99.90
2579;DHT22;1299;48.282;14.398;2023-03-01T00:09:45;2.90;99.90
2579;DHT22;1299;48.282;14.398;2023-03-01T00:12:13;2.80;99.90
2579;DHT22;1299;48.282;14.398;2023-03-01T00:14:41;2.80;99.90
2579;DHT22;1299;48.282;14.398;2023-03-01T00:17:08;2.70;99.90
2579;DHT22;1299;48.282;14.398;2023-03-01T00:19:35;2.80;99.90
2579;DHT22;1299;48.282;14.398;2023-03-01T00:22:03;2.80;99.90
2579;DHT22;1299;48.282;14.398;2023-03-01T00:24:30;2.80;99.90
2579;DHT22;1299;48.282;14.398;2023-03-01T00:26:57;2.80;99.90
2579;DHT22;1299;48.282;14.398;2023-03-01T00:29:26;2.80;99.90
2579;DHT22;1299;48.282;14.398;2023-03-01T00:31:53;2.90;99.90
2579;DHT22;1299;48.282;14.398;2023-03-01T00:34:21;2.90;99.90
2579;DHT22;1299;48.282;14.398;2023-03-01T00:36:48;2.90;99.90
2579;DHT22;1299;48.282;14.398;2023-03-01T00:39:15;2.90;99.90
2579;DHT22;1299;48.282;14.398;2023-03-01T00:41:43;2.90;99.90
2579;DHT22;1299;48.282;14.398;2023-03-01T00:44:11;2.90;99.90
2579;DHT22;1299;48.282;14.398;2023-03-01T00:46:40;2.70;99.90
2579;DHT22;1299;48.282;14.398;2023-03-01T00:49:07;2.80;99.90
2579;DHT22;1299;48.282;14.398;2023-03-01T00:51:34;2.70;99.90
2579;DHT22;1299;48.282;14.398;2023-03-01T00:54:02;2.50;99.90
2579;DHT22;1299;48.282;14.398;2023-03-01T00:56:30;2.70;99.90
2579;DHT22;1299;48.282;14.398;2023-03-01T00:58:58;2.70;99.90
2579;DHT22;1299;48.282;14.398;2023-03-01T01:01:27;2.50;99.90
2579;DHT22;1299;48.282;14.398;2023-03-01T01:03:59;2.60;99.90
2579;DHT22;1299;48.282;14.398;2023-03-01T01:06:28;2.50;99.90
2579;DHT22;1299;48.282;14.398;2023-03-01T01:08:57;2.50;99.90
2579;DHT22;1299;48.282;14.398;2023-03-01T01:11:27;2.60;99.90
2579;DHT22;1299;48.282;14.398;2023-03-01T01:13:55;2.30;99.90
2579;DHT22;1299;48.282;14.398;2023-03-01T01:16:24;2.40;99.90
2579;DHT22;1299;48.282;14.398;2023-03-01T01:18:53;2.50;99.90
2579;DHT22;1299;48.282;14.398;2023-03-01T01:21:24;2.50;99.90
2579;DHT22;1299;48.282;14.398;2023-03-01T01:23:52;2.50;99.90
2579;DHT22;1299;48.282;14.398;2023-03-01T01:26:21;2.40;99.90
2579;DHT22;1299;48.282;14.398;2023-03-01T01:28:50;2.30;99.90
2579;DHT22;1299;48.282;14.398;2023-03-01T01:31:18;2.40;99.90
2579;DHT22;1299;48.282;14.398;2023-03-01T01:33:46;2.30;99.90
2579;DHT22;1299;48.282;14.398;2023-03-01T01:36:13;2.40;99.90
2579;DHT22;1299;48.282;14.398;2023-03-01T01:38:42;2.30;99.90
2579;DHT22;1299;48.282;14.398;2023-03-01T01:41:11;2.40;99.90
2579;DHT22;1299;48.282;14.398;2023-03-01T01:43:40;2.20;99.90
2579;DHT22;1299;48.282;14.398;2023-03-01T01:46:16;2.30;99.90
2579;DHT22;1299;48.282;14.398;2023-03-01T01:48:50;2.20;99.90
2579;DHT22;1299;48.282;14.398;2023-03-01T01:51:23;2.20;99.90
2579;DHT22;1299;48.282;14.398;2023-03-01T01:53:57;2.10;99.90
2579;DHT22;1299;48.282;14.398;2023-03-01T01:56:28;2.20;99.90
2579;DHT22;1299;48.282;14.398;2023-03-01T01:58:56;2.20;99.90
2579;DHT22;1299;48.282;14.398;2023-03-01T02:01:25;2.20;99.90
2579;DHT22;1299;48.282;14.398;2023-03-01T02:03:52;2.10;99.90
2579;DHT22;1299;48.282;14.398;2023-03-01T02:06:24;2.00;99.90
2579;DHT22;1299;48.282;14.398;2023-03-01T02:08:59;2.10;99.90
2579;DHT22;1299;48.282;14.398;2023-03-01T02:11:27;2.00;99.90
2579;DHT22;1299;48.282;14.398;2023-03-01T02:13:56;2.00;99.90
2579;DHT22;1299;48.282;14.398;2023-03-01T02:16:23;2.00;99.90
2579;DHT22;1299;48.282;14.398;2023-03-01T02:18:53;2.10;99.90
2579;DHT22;1299;48.282;14.398;2023-03-01T02:21:30;2.00;99.90
2579;DHT22;1299;48.282;14.398;2023-03-01T02:24:05;2.00;99.90
2579;DHT22;1299;48.282;14.398;2023-03-01T02:26:42;2.00;99.90
2579;DHT22;1299;48.282;14.398;2023-03-01T02:29:13;2.00;99.90
2579;DHT22;1299;48.282;14.398;2023-03-01T02:31:41;2.00;99.90
2579;DHT22;1299;48.282;14.398;2023-03-01T02:34:09;2.00;99.90
2579;DHT22;1299;48.282;14.398;2023-03-01T02:36:40;1.90;99.90
2579;DHT22;1299;48.282;14.398;2023-03-01T02:39:12;2.00;99.90
2579;DHT22;1299;48.282;14.398;2023-03-01T02:41:44;1.90;99.90
2579;DHT22;1299;48.282;14.398;2023-03-01T02:44:14;1.90;99.90
2579;DHT22;1299;48.282;14.398;2023-03-01T02:46:46;1.90;99.90
2579;DHT22;1299;48.282;14.398;2023-03-01T02:49:23;1.80;99.90
2579;DHT22;1299;48.282;14.398;2023-03-01T02:52:23;1.80;99.90
2579;DHT22;1299;48.282;14.398;2023-03-01T02:54:55;1.80;99.90
2579;DHT22;1299;48.282;14.398;2023-03-01T02:57:25;1.80;99.90
2579;DHT22;1299;48.282;14.398;2023-03-01T02:59:57;1.80;99.90
2579;DHT22;1299;48.282;14.398;2023-03-01T03:02:29;1.80;99.90
2579;DHT22;1299;48.282;14.398;2023-03-01T03:05:05;1.70;99.90
2579;DHT22;1299;48.282;14.398;2023-03-01T03:07:34;1.40;99.90
2579;DHT22;1299;48.282;14.398;2023-03-01T03:10:03;1.70;99.90
2579;DHT22;1299;48.282;14.398;2023-03-01T03:12:31;1.70;99.90
2579;DHT22;1299;48.282;14.398;2023-03-01T03:15:00;1.70;99.90
2579;DHT22;1299;48.282;14.398;2023-03-01T03:17:35;1.70;99.90
2579;DHT22;1299;48.282;14.398;2023-03-01T03:20:02;1.40;99.90
2579;DHT22;1299;48.282;14.398;2023-03-01T03:22:31;1.60;99.90
2579;DHT22;1299;48.282;14.398;2023-03-01T03:24:59;1.60;99.90
2579;DHT22;1299;48.282;14.398;2023-03-01T03:27:28;1.70;99.90
2579;DHT22;1299;48.282;14.398;2023-03-01T03:29:57;1.50;99.90
2579;DHT22;1299;48.282;14.398;2023-03-01T03:32:26;1.40;99.90
2579;DHT22;1299;48.282;14.398;2023-03-01T03:34:53;1.40;99.90
2579;DHT22;1299;48.282;14.398;2023-03-01T03:37:21;1.50;99.90
2579;DHT22;1299;48.282;14.398;2023-03-01T03:40:02;1.60;99.90
2579;DHT22;1299;48.282;14.398;2023-03-01T03:42:42;1.60;99.90
2579;DHT22;1299;48.282;14.398;2023-03-01T03:45:09;1.60;99.90
2579;DHT22;1299;48.282;14.398;2023-03-01T03:47:38;1.70;99.90
2579;DHT22;1299;48.282;14.398;2023-03-01T03:50:06;1.70;99.90
2579;DHT22;1299;48.282;14.398;2023-03-01T03:52:33;1.60;99.90
2579;DHT22;1299;48.282;14.398;2023-03-01T03:55:00;1.70;99.90
2579;DHT22;1299;48.282;14.398;2023-03-01T03:57:28;1.40;99.90
2579;DHT22;1299;48.282;14.398;2023-03-01T03:59:55;1.60;99.90
2579;DHT22;1299;48.282;14.398;2023-03-01T04:02:22;1.70;99.90
2579;DHT22;1299;48.282;14.398;2023-03-01T04:04:51;1.70;99.90
2579;DHT22;1299;48.282;14.398;2023-03-01T04:07:18;1.60;99.90
2579;DHT22;1299;48.282;14.398;2023-03-01T04:09:45;1.60;99.90
2579;DHT22;1299;48.282;14.398;2023-03-01T04:12:13;1.70;99.90
2579;DHT22;1299;48.282;14.398;2023-03-01T04:14:47;1.70;99.90
2579;DHT22;1299;48.282;14.398;2023-03-01T04:17:15;1.70;99.90
2579;DHT22;1299;48.282;14.398;2023-03-01T04:19:42;1.70;99.90
2579;DHT22;1299;48.282;14.398;2023-03-01T04:22:13;1.60;99.90
2579;DHT22;1299;48.282;14.398;2023-03-01T04:24:43;1.60;99.90
2579;DHT22;1299;48.282;14.398;2023-03-01T04:27:10;1.50;99.90
2579;DHT22;1299;48.282;14.398;2023-03-01T04:29:38;1.60;99.90
2579;DHT22;1299;48.282;14.398;2023-03-01T04:32:05;1.60;99.90
2579;DHT22;1299;48.282;14.398;2023-03-01T04:34:33;1.60;99.90
2579;DHT22;1299;48.282;14.398;2023-03-01T04:37:01;1.60;99.90
2579;DHT22;1299;48.282;14.398;2023-03-01T04:39:30;1.60;99.90
2579;DHT22;1299;48.282;14.398;2023-03-01T04:41:58;1.60;99.90
2579;DHT22;1299;48.282;14.398;2023-03-01T04:44:27;1.60;99.90
2579;DHT22;1299;48.282;14.398;2023-03-01T04:46:54;1.60;99.90
2579;DHT22;1299;48.282;14.398;2023-03-01T04:49:21;1.60;99.90
2579;DHT22;1299;48.282;14.398;2023-03-01T04:51:48;1.60;99.90
2579;DHT22;1299;48.282;14.398;2023-03-01T04:54:16;1.60;99.90
2579;DHT22;1299;48.282;14.398;2023-03-01T04:56:45;1.60;99.90
2579;DHT22;1299;48.282;14.398;2023-03-01T04:59:12;1.70;99.90
2579;DHT22;1299;48.282;14.398;2023-03-01T05:01:39;1.60;99.90
2579;DHT22;1299;48.282;14.398;2023-03-01T05:04:09;1.60;99.90
2579;DHT22;1299;48.282;14.398;2023-03-01T05:06:38;1.60;99.90
2579;DHT22;1299;48.282;14.398;2023-03-01T05:09:05;1.60;99.90
2579;DHT22;1299;48.282;14.398;2023-03-01T05:11:33;1.20;99.90
2579;DHT22;1299;48.282;14.398;2023-03-01T05:14:03;1.20;99.90
2579;DHT22;1299;48.282;14.398;2023-03-01T05:16:31;1.40;99.90
2579;DHT22;1299;48.282;14.398;2023-03-01T05:18:59;1.40;99.90
2579;DHT22;1299;48.282;14.398;2023-03-01T05:21:26;1.40;99.90
2579;DHT22;1299;48.282;14.398;2023-03-01T05:23:54;1.40;99.90
2579;DHT22;1299;48.282;14.398;2023-03-01T05:26:21;1.40;99.90
2579;DHT22;1299;48.282;14.398;2023-03-01T05:28:54;1.40;99.90
2579;DHT22;1299;48.282;14.398;2023-03-01T05:31:26;1.40;99.90
2579;DHT22;1299;48.282;14.398;2023-03-01T05:33:53;1.50;99.90
2579;DHT22;1299;48.282;14.398;2023-03-01T05:36:20;1.50;99.90
2579;DHT22;1299;48.282;14.398;2023-03-01T05:38:48;1.50;99.90
2579;DHT22;1299;48.282;14.398;2023-03-01T05:41:15;1.40;99.90
2579;DHT22;1299;48.282;14.398;2023-03-01T05:43:42;1.50;99.90
2579;DHT22;1299;48.282;14.398;2023-03-01T05:46:10;1.50;99.90
2579;DHT22;1299;48.282;14.398;2023-03-01T05:48:40;1.20;99.90
2579;DHT22;1299;48.282;14.398;2023-03-01T05:51:08;1.10;99.90
2579;DHT22;1299;48.282;14.398;2023-03-01T05:53:35;1.30;99.90
2579;DHT22;1299;48.282;14.398;2023-03-01T05:56:03;1.50;99.90
2579;DHT22;1299;48.282;14.398;2023-03-01T05:58:31;1.70;99.90
2579;DHT22;1299;48.282;14.398;2023-03-01T06:00:59;1.60;99.90
2579;DHT22;1299;48.282;14.398;2023-03-01T06:03:26;1.70;99.90
2579;DHT22;1299;48.282;14.398;2023-03-01T06:05:57;1.50;99.90
2579;DHT22;1299;48.282;14.398;2023-03-01T06:08:25;1.70;99.90
2579;DHT22;1299;48.282;14.398;2023-03-01T06:10:53;1.60;99.90
2579;DHT22;1299;48.282;14.398;2023-03-01T06:13:20;1.80;99.90
2579;DHT22;1299;48.282;14.398;2023-03-01T06:15:48;1.80;99.90
2579;DHT22;1299;48.282;14.398;2023-03-01T06:18:16;1.90;99.90
2579;DHT22;1299;48.282;14.398;2023-03-01T06:20:44;2.10;99.90
2579;DHT22;1299;48.282;14.398;2023-03-01T06:23:13;3.30;99.90
2579;DHT22;1299;48.282;14.398;2023-03-01T06:25:40;4.90;99.90
2579;DHT22;1299;48.282;14.398;2023-03-01T06:28:07;5.40;98.30
2579;DHT22;1299;48.282;14.398;2023-03-01T06:30:38;6.70;97.70
2579;DHT22;1299;48.282;14.398;2023-03-01T06:33:05;7.90;96.30
2579;DHT22;1299;48.282;14.398;2023-03-01T06:35:32;8.80;91.70
2579;DHT22;1299;48.282;14.398;2023-03-01T06:38:02;8.90;92.00
2579;DHT22;1299;48.282;14.398;2023-03-01T06:40:31;9.70;87.80
2579;DHT22;1299;48.282;14.398;2023-03-01T06:43:01;9.80;90.30
2579;DHT22;1299;48.282;14.398;2023-03-01T06:45:28;10.20;81.40
2579;DHT22;1299;48.282;14.398;2023-03-01T06:48:02;11.30;87.30
2579;DHT22;1299;48.282;14.398;2023-03-01T06:50:30;12.70;85.00
2579;DHT22;1299;48.282;14.398;2023-03-01T06:52:58;13.20;78.80
2579;DHT22;1299;48.282;14.398;2023-03-01T06:55:25;14.10;78.00
2579;DHT22;1299;48.282;14.398;2023-03-01T06:57:56;14.10;74.30
2579;DHT22;1299;48.282;14.398;2023-03-01T07:00:25;15.00;79.00
2579;DHT22;1299;48.282;14.398;2023-03-01T07:02:53;15.40;71.70
2579;DHT22;1299;48.282;14.398;2023-03-01T07:05:20;16.20;72.30
2579;DHT22;1299;48.282;14.398;2023-03-01T07:07:47;16.30;69.50
2579;DHT22;1299;48.282;14.398;2023-03-01T07:10:15;16.90;72.00
2579;DHT22;1299;48.282;14.398;2023-03-01T07:12:43;17.20;70.70
2579;DHT22;1299;48.282;14.398;2023-03-01T07:15:12;18.40;69.00
2579;DHT22;1299;48.282;14.398;2023-03-01T07:17:40;17.90;63.40
2579;DHT22;1299;48.282;14.398;2023-03-01T07:20:14;18.20;65.40
2579;DHT22;1299;48.282;14.398;2023-03-01T07:22:41;18.30;63.50
2579;DHT22;1299;48.282;14.398;2023-03-01T07:25:09;18.00;61.20
2579;DHT22;1299;48.282;14.398;2023-03-01T07:27:37;19.00;60.30
2579;DHT22;1299;48.282;14.398;2023-03-01T07:30:05;19.10;63.50
2579;DHT22;1299;48.282;14.398;2023-03-01T07:32:35;19.50;65.50
2579;DHT22;1299;48.282;14.398;2023-03-01T07:35:02;19.40;60.70
2579;DHT22;1299;48.282;14.398;2023-03-01T07:37:30;16.20;54.70
2579;DHT22;1299;48.282;14.398;2023-03-01T07:39:57;17.00;59.00
2579;DHT22;1299;48.282;14.398;2023-03-01T07:42:24;14.00;63.00
2579;DHT22;1299;48.282;14.398;2023-03-01T07:44:52;10.90;66.00
2579;DHT22;1299;48.282;14.398;2023-03-01T07:47:19;8.40;72.40
2579;DHT22;1299;48.282;14.398;2023-03-01T07:49:48;7.10;75.50
2579;DHT22;1299;48.282;14.398;2023-03-01T07:52:15;6.10;78.40
2579;DHT22;1299;48.282;14.398;2023-03-01T07:54:43;6.30;80.10
2579;DHT22;1299;48.282;14.398;2023-03-01T07:57:11;6.30;81.40
2579;DHT22;1299;48.282;14.398;2023-03-01T07:59:38;6.20;82.30
2579;DHT22;1299;48.282;14.398;2023-03-01T08:02:06;6.20;84.30
2579;DHT22;1299;48.282;14.398;2023-03-01T08:04:33;5.40;83.90
2579;DHT22;1299;48.282;14.398;2023-03-01T08:07:05;5.10;86.10
2579;DHT22;1299;48.282;14.398;2023-03-01T08:09:34;5.50;88.30
2579;DHT22;1299;48.282;14.398;2023-03-01T08:12:03;5.40;88.80
2579;DHT22;1299;48.282;14.398;2023-03-01T08:14:31;5.40;90.40
2579;DHT22;1299;48.282;14.398;2023-03-01T08:16:58;5.30;89.90
2579;DHT22;1299;48.282;14.398;2023-03-01T08:19:25;5.60;90.20
2579;DHT22;1299;48.282;14.398;2023-03-01T08:21:53;5.90;90.20
2579;DHT22;1299;48.282;14.398;2023-03-01T08:24:26;5.60;88.70
2579;DHT22;1299;48.282;14.398;2023-03-01T08:26:53;5.40;89.80
2579;DHT22;1299;48.282;14.398;2023-03-01T08:29:21;5.80;90.50
2579;DHT22;1299;48.282;14.398;2023-03-01T08:31:51;5.70;87.50
2579;DHT22;1299;48.282;14.398;2023-03-01T08:34:19;5.70;89.10
2579;DHT22;1299;48.282;14.398;2023-03-01T08:36:46;6.50;87.70
2579;DHT22;1299;48.282;14.398;2023-03-01T08:39:16;5.80;85.50
2579;DHT22;1299;48.282;14.398;2023-03-01T08:41:46;6.40;85.80
2579;DHT22;1299;48.282;14.398;2023-03-01T08:44:15;6.30;84.80
2579;DHT22;1299;48.282;14.398;2023-03-01T08:46:43;6.90;83.90
2579;DHT22;1299;48.282;14.398;2023-03-01T08:49:14;7.80;85.00
2579;DHT22;1299;48.282;14.398;2023-03-01T08:51:42;8.50;82.10
2579;DHT22;1299;48.282;14.398;2023-03-01T08:54:12;8.40;81.30
2579;DHT22;1299;48.282;14.398;2023-03-01T08:56:40;8.20;79.10
2579;DHT22;1299;48.282;14.398;2023-03-01T08:59:09;8.90;81.30
2579;DHT22;1299;48.282;14.398;2023-03-01T09:01:37;9.40;80.30
2579;DHT22;1299;48.282;14.398;2023-03-01T09:04:06;9.80;80.50
2579;DHT22;1299;48.282;14.398;2023-03-01T09:06:34;10.00;79.10
2579;DHT22;1299;48.282;14.398;2023-03-01T09:09:02;9.10;79.10
2579;DHT22;1299;48.282;14.398;2023-03-01T09:11:29;8.50;80.40
2579;DHT22;1299;48.282;14.398;2023-03-01T09:13:57;7.20;80.50
2579;DHT22;1299;48.282;14.398;2023-03-01T09:16:26;6.40;82.80
2579;DHT22;1299;48.282;14.398;2023-03-01T09:18:55;7.10;86.00
2579;DHT22;1299;48.282;14.398;2023-03-01T09:21:24;6.70;85.60
2579;DHT22;1299;48.282;14.398;2023-03-01T09:23:51;6.60;86.40
2579;DHT22;1299;48.282;14.398;2023-03-01T09:26:20;6.60;87.90
2579;DHT22;1299;48.282;14.398;2023-03-01T09:28:50;6.80;87.70
2579;DHT22;1299;48.282;14.398;2023-03-01T09:31:19;6.80;88.90
2579;DHT22;1299;48.282;14.398;2023-03-01T09:33:50;6.80;89.10
2579;DHT22;1299;48.282;14.398;2023-03-01T09:36:20;6.60;90.00
2579;DHT22;1299;48.282;14.398;2023-03-01T09:38:48;6.50;90.10
2579;DHT22;1299;48.282;14.398;2023-03-01T09:41:26;6.90;91.20
2579;DHT22;1299;48.282;14.398;2023-03-01T09:44:01;6.50;90.80
2579;DHT22;1299;48.282;14.398;2023-03-01T09:46:34;6.70;91.70
2579;DHT22;1299;48.282;14.398;2023-03-01T09:49:10;6.60;91.90
2579;DHT22;1299;48.282;14.398;2023-03-01T09:51:39;6.50;92.30
2579;DHT22;1299;48.282;14.398;2023-03-01T09:54:08;6.80;92.70
2579;DHT22;1299;48.282;14.398;2023-03-01T09:56:40;7.00;92.40
2579;DHT22;1299;48.282;14.398;2023-03-01T09:59:19;7.30;93.00
2579;DHT22;1299;48.282;14.398;2023-03-01T10:01:51;7.20;92.40
2579;DHT22;1299;48.282;14.398;2023-03-01T10:04:40;7.30;92.40
2579;DHT22;1299;48.282;14.398;2023-03-01T10:07:20;7.20;91.90
2579;DHT22;1299;48.282;14.398;2023-03-01T10:09:48;7.10;91.80
2579;DHT22;1299;48.282;14.398;2023-03-01T10:12:18;7.40;92.20
2579;DHT22;1299;48.282;14.398;2023-03-01T10:14:54;7.30;91.90
2579;DHT22;1299;48.282;14.398;2023-03-01T10:17:28;7.10;92.10
2579;DHT22;1299;48.282;14.398;2023-03-01T10:20:15;7.30;92.20
2579;DHT22;1299;48.282;14.398;2023-03-01T10:22:43;7.50;92.40
2579;DHT22;1299;48.282;14.398;2023-03-01T10:25:21;7.30;92.00
2579;DHT22;1299;48.282;14.398;2023-03-01T10:27:52;7.30;91.80
2579;DHT22;1299;48.282;14.398;2023-03-01T10:30:22;7.20;92.00
2579;DHT22;1299;48.282;14.398;2023-03-01T10:32:57;7.20;92.10
2579;DHT22;1299;48.282;14.398;2023-03-01T10:35:29;7.20;92.50
2579;DHT22;1299;48.282;14.398;2023-03-01T10:37:58;7.30;92.00
2579;DHT22;1299;48.282;14.398;2023-03-01T10:40:29;7.40;92.90
2579;DHT22;1299;48.282;14.398;2023-03-01T10:42:59;7.50;92.90
2579;DHT22;1299;48.282;14.398;2023-03-01T10:45:33;7.50;93.00
2579;DHT22;1299;48.282;14.398;2023-03-01T10:48:10;7.80;93.50
2579;DHT22;1299;48.282;14.398;2023-03-01T10:50:41;7.40;92.30
2579;DHT22;1299;48.282;14.398;2023-03-01T10:53:23;7.50;93.10
2579;DHT22;1299;48.282;14.398;2023-03-01T10:56:04;7.80;93.30
2579;DHT22;1299;48.282;14.398;2023-03-01T10:58:33;7.60;93.70
2579;DHT22;1299;48.282;14.398;2023-03-01T11:01:03;7.60;93.80
2579;DHT22;1299;48.282;14.398;2023-03-01T11:03:32;7.60;93.50
2579;DHT22;1299;48.282;14.398;2023-03-01T11:06:05;7.80;95.50
2579;DHT22;1299;48.282;14.398;2023-03-01T11:08:36;7.90;94.00
2579;DHT22;1299;48.282;14.398;2023-03-01T11:11:22;7.90;94.10
2579;DHT22;1299;48.282;14.398;2023-03-01T11:13:55;8.30;95.00
2579;DHT22;1299;48.282;14.398;2023-03-01T11:16:26;7.90;93.00
2579;DHT22;1299;48.282;14.398;2023-03-01T11:19:12;7.80;93.90
2579;DHT22;1299;48.282;14.398;2023-03-01T11:21:48;8.10;94.60
2579;DHT22;1299;48.282;14.398;2023-03-01T11:24:17;8.20;94.50
2579;DHT22;1299;48.282;14.398;2023-03-01T11:26:50;8.40;96.00
2579;DHT22;1299;48.282;14.398;2023-03-01T11:29:27;8.30;94.60
2579;DHT22;1299;48.282;14.398;2023-03-01T11:31:58;8.40;93.90
2579;DHT22;1299;48.282;14.398;2023-03-01T11:34:36;8.80;94.90
2579;DHT22;1299;48.282;14.398;2023-03-01T11:37:15;8.60;93.30
2579;DHT22;1299;48.282;14.398;2023-03-01T11:39:54;8.60;93.70
2579;DHT22;1299;48.282;14.398;2023-03-01T11:42:30;8.70;92.70
2579;DHT22;1299;48.282;14.398;2023-03-01T11:45:08;8.50;92.80
2579;DHT22;1299;48.282;14.398;2023-03-01T11:47:47;8.70;93.00
2579;DHT22;1299;48.282;14.398;2023-03-01T11:50:24;8.80;92.80
2579;DHT22;1299;48.282;14.398;2023-03-01T11:53:04;8.90;93.20
2579;DHT22;1299;48.282;14.398;2023-03-01T11:55:51;8.70;92.20
2579;DHT22;1299;48.282;14.398;2023-03-01T11:58:44;8.90;92.40
2579;DHT22;1299;48.282;14.398;2023-03-01T12:01:28;8.90;92.40
2579;DHT22;1299;48.282;14.398;2023-03-01T12:04:30;9.50;94.30
2579;DHT22;1299;48.282;14.398;2023-03-01T12:07:01;9.30;91.80
2579;DHT22;1299;48.282;14.398;2023-03-01T12:09:48;9.20;92.20
2579;DHT22;1299;48.282;14.398;2023-03-01T12:12:32;9.40;92.90
2579;DHT22;1299;48.282;14.398;2023-03-01T12:15:22;9.80;94.20
2579;DHT22;1299;48.282;14.398;2023-03-01T12:18:24;10.00;92.70
2579;DHT22;1299;48.282;14.398;2023-03-01T12:21:02;10.00;92.30
2579;DHT22;1299;48.282;14.398;2023-03-01T12:23:56;9.50;92.60
2579;DHT22;1299;48.282;14.398;2023-03-01T12:26:31;9.80;93.00
2579;DHT22;1299;48.282;14.398;2023-03-01T12:29:17;9.40;93.20
2579;DHT22;1299;48.282;14.398;2023-03-01T12:32:09;9.50;92.60
2579;DHT22;1299;48.282;14.398;2023-03-01T12:35:04;9.20;92.50
2579;DHT22;1299;48.282;14.398;2023-03-01T12:37:46;9.20;92.90
2579;DHT22;1299;48.282;14.398;2023-03-01T12:40:40;9.30;93.50
2579;DHT22;1299;48.282;14.398;2023-03-01T12:43:26;9.10;92.80
2579;DHT22;1299;48.282;14.398;2023-03-01T12:46:06;9.20;93.10
2579;DHT22;1299;48.282;14.398;2023-03-01T12:48:44;9.10;92.90
2579;DHT22;1299;48.282;14.398;2023-03-01T12:51:15;9.10;93.70
2579;DHT22;1299;48.282;14.398;2023-03-01T12:53:47;9.10;93.70
2579;DHT22;1299;48.282;14.398;2023-03-01T12:56:18;9.00;93.50
2579;DHT22;1299;48.282;14.398;2023-03-01T12:58:55;9.00;93.20
2579;DHT22;1299;48.282;14.398;2023-03-01T13:01:36;9.10;93.40
2579;DHT22;1299;48.282;14.398;2023-03-01T13:04:16;9.10;93.80
2579;DHT22;1299;48.282;14.398;2023-03-01T13:06:54;9.20;94.40
2579;DHT22;1299;48.282;14.398;2023-03-01T13:09:30;9.30;94.10
2579;DHT22;1299;48.282;14.398;2023-03-01T13:12:01;9.30;93.70
2579;DHT22;1299;48.282;14.398;2023-03-01T13:14:45;9.20;93.70
2579;DHT22;1299;48.282;14.398;2023-03-01T13:17:32;9.50;94.50
2579;DHT22;1299;48.282;14.398;2023-03-01T13:20:00;9.70;93.70
2579;DHT22;1299;48.282;14.398;2023-03-01T13:22:32;9.40;93.20
2579;DHT22;1299;48.282;14.398;2023-03-01T13:25:13;9.20;93.60
2579;DHT22;1299;48.282;14.398;2023-03-01T13:27:40;9.10;93.90
2579;DHT22;1299;48.282;14.398;2023-03-01T13:30:40;9.30;94.00
2579;DHT22;1299;48.282;14.398;2023-03-01T13:33:44;9.50;94.80
2579;DHT22;1299;48.282;14.398;2023-03-01T13:39:28;9.30;93.50
2579;DHT22;1299;48.282;14.398;2023-03-01T13:41:59;9.90;94.10
2579;DHT22;1299;48.282;14.398;2023-03-01T13:44:30;9.80;93.40
2579;DHT22;1299;48.282;14.398;2023-03-01T13:47:14;9.40;93.30
2579;DHT22;1299;48.282;14.398;2023-03-01T13:49:46;9.40;93.20
2579;DHT22;1299;48.282;14.398;2023-03-01T13:52:38;9.50;93.20
2579;DHT22;1299;48.282;14.398;2023-03-01T13:55:17;9.70;93.30
2579;DHT22;1299;48.282;14.398;2023-03-01T13:57:48;9.40;92.20
2579;DHT22;1299;48.282;14.398;2023-03-01T14:00:28;9.60;92.80
2579;DHT22;1299;48.282;14.398;2023-03-01T14:03:12;9.70;92.90
2579;DHT22;1299;48.282;14.398;2023-03-01T14:05:41;9.60;92.70
2579;DHT22;1299;48.282;14.398;2023-03-01T14:08:21;9.60;93.10
2579;DHT22;1299;48.282;14.398;2023-03-01T14:10:58;9.70;93.10
2579;DHT22;1299;48.282;14.398;2023-03-01T14:13:36;9.80;93.40
2579;DHT22;1299;48.282;14.398;2023-03-01T14:16:17;9.80;93.40
2579;DHT22;1299;48.282;14.398;2023-03-01T14:18:56;9.60;93.00
2579;DHT22;1299;48.282;14.398;2023-03-01T14:21:26;9.80;93.80
2579;DHT22;1299;48.282;14.398;2023-03-01T14:23:53;9.80;93.60
2579;DHT22;1299;48.282;14.398;2023-03-01T14:26:22;10.10;92.70
2579;DHT22;1299;48.282;14.398;2023-03-01T14:28:50;10.00;92.10
2579;DHT22;1299;48.282;14.398;2023-03-01T14:31:34;9.90;92.80
2579;DHT22;1299;48.282;14.398;2023-03-01T14:34:04;9.80;92.70
2579;DHT22;1299;48.282;14.398;2023-03-01T14:36:34;9.80;92.60
2579;DHT22;1299;48.282;14.398;2023-03-01T14:39:01;9.80;92.70
2579;DHT22;1299;48.282;14.398;2023-03-01T14:41:34;9.90;93.00
2579;DHT22;1299;48.282;14.398;2023-03-01T14:44:06;10.10;92.80
2579;DHT22;1299;48.282;14.398;2023-03-01T14:46:36;10.00;92.00
2579;DHT22;1299;48.282;14.398;2023-03-01T14:49:09;9.90;92.50
2579;DHT22;1299;48.282;14.398;2023-03-01T14:51:38;9.90;92.80
2579;DHT22;1299;48.282;14.398;2023-03-01T14:54:20;9.80;93.00
2579;DHT22;1299;48.282;14.398;2023-03-01T14:56:48;9.90;93.00
2579;DHT22;1299;48.282;14.398;2023-03-01T14:59:15;10.00;92.30
2579;DHT22;1299;48.282;14.398;2023-03-01T15:01:46;9.80;92.40
2579;DHT22;1299;48.282;14.398;2023-03-01T15:04:15;9.80;92.70
2579;DHT22;1299;48.282;14.398;2023-03-01T15:06:43;9.70;92.50
2579;DHT22;1299;48.282;14.398;2023-03-01T15:09:14;9.80;93.20
2579;DHT22;1299;48.282;14.398;2023-03-01T15:11:43;9.80;92.90
2579;DHT22;1299;48.282;14.398;2023-03-01T15:14:39;9.80;93.60
2579;DHT22;1299;48.282;14.398;2023-03-01T15:17:21;9.90;93.40
2579;DHT22;1299;48.282;14.398;2023-03-01T15:19:52;10.00;93.20
2579;DHT22;1299;48.282;14.398;2023-03-01T15:22:20;9.90;93.30
2579;DHT22;1299;48.282;14.398;2023-03-01T15:24:49;9.90;93.80
2579;DHT22;1299;48.282;14.398;2023-03-01T15:27:18;9.80;93.40
2579;DHT22;1299;48.282;14.398;2023-03-01T15:29:49;9.60;92.90
2579;DHT22;1299;48.282;14.398;2023-03-01T15:32:27;9.60;93.00
2579;DHT22;1299;48.282;14.398;2023-03-01T15:34:56;9.60;93.50
2579;DHT22;1299;48.282;14.398;2023-03-01T15:37:40;9.50;93.60
2579;DHT22;1299;48.282;14.398;2023-03-01T15:40:22;9.50;94.00
2579;DHT22;1299;48.282;14.398;2023-03-01T15:42:50;9.40;93.80
2579;DHT22;1299;48.282;14.398;2023-03-01T15:45:23;9.40;94.20
2579;DHT22;1299;48.282;14.398;2023-03-01T15:47:55;9.30;94.50
2579;DHT22;1299;48.282;14.398;2023-03-01T15:50:28;9.30;94.40
2579;DHT22;1299;48.282;14.398;2023-03-01T15:52:59;9.10;94.50
2579;DHT22;1299;48.282;14.398;2023-03-01T15:55:30;9.20;95.30
2579;DHT22;1299;48.282;14.398;2023-03-01T15:58:00;9.30;94.90
2579;DHT22;1299;48.282;14.398;2023-03-01T16:00:28;9.30;95.40
2579;DHT22;1299;48.282;14.398;2023-03-01T16:02:57;9.60;94.70
2579;DHT22;1299;48.282;14.398;2023-03-01T16:05:29;9.70;94.40
2579;DHT22;1299;48.282;14.398;2023-03-01T16:07:57;9.70;94.60
2579;DHT22;1299;48.282;14.398;2023-03-01T16:10:27;9.90;95.30
2579;DHT22;1299;48.282;14.398;2023-03-01T16:12:55;9.90;94.60
2579;DHT22;1299;48.282;14.398;2023-03-01T16:15:25;10.00;93.90
2579;DHT22;1299;48.282;14.398;2023-03-01T16:17:53;10.00;94.00
2579;DHT22;1299;48.282;14.398;2023-03-01T16:20:22;10.00;94.20
2579;DHT22;1299;48.282;14.398;2023-03-01T16:22:51;9.90;93.90
2579;DHT22;1299;48.282;14.398;2023-03-01T16:25:20;9.60;93.70
2579;DHT22;1299;48.282;14.398;2023-03-01T16:27:49;9.70;94.30
2579;DHT22;1299;48.282;14.398;2023-03-01T16:30:19;9.50;94.00
2579;DHT22;1299;48.282;14.398;2023-03-01T16:32:48;9.50;94.50